Time;durP1;ratioP1;P1;durP2;ratioP2;P2;SDS_P1;SDS_P2;PMS_P1;PMS_P2;Temp;Humidity;BMP_temperature;BMP_pressure;BME280_temperature;BME280_humidity;BME280_pressure;Samples;Min_cycle;Max_cycle;Signal;HPM_P1;HPM_P2
2021/03/13 00:01:20;;;;;;;39.13;18.85;;;;;;;0.50;84.41;99401.47;1758225;80;25693;-56
2021/03/13 00:03:46;;;;;;;38.98;19.48;;;;;;;0.48;84.34;99400.14;1758455;80;25551;-55
2021/03/13 00:06:13;;;;;;;37.90;19.05;;;;;;;0.45;84.31;99398.80;1758433;80;26162;-55
2021/03/13 00:08:40;;;;;;;34.40;18.35;;;;;;;0.43;84.45;99394.81;1758224;80;25312;-55
2021/03/13 00:11:10;;;;;;;39.35;20.15;;;;;;;0.42;84.67;99389.22;1758442;81;25695;-53
2021/03/13 00:13:37;;;;;;;38.08;18.73;;;;;;;0.43;84.86;99393.48;1758361;80;25434;-52
2021/03/13 00:16:05;;;;;;;33.83;17.45;;;;;;;0.42;84.65;99392.66;1758570;81;25450;-54
2021/03/13 00:18:34;;;;;;;37.65;18.87;;;;;;;0.42;84.83;99383.89;1758612;80;25630;-55
2021/03/13 00:21:01;;;;;;;41.97;19.50;;;;;;;0.40;84.87;99381.49;1758738;81;25596;-55
2021/03/13 00:23:27;;;;;;;35.92;19.25;;;;;;;0.39;84.74;99380.42;1758254;80;25683;-55
2021/03/13 00:25:54;;;;;;;37.58;18.52;;;;;;;0.36;84.78;99379.89;1758788;80;25319;-54
2021/03/13 00:28:20;;;;;;;36.53;18.95;;;;;;;0.35;84.70;99382.81;1758804;80;25236;-54
2021/03/13 00:30:49;;;;;;;35.88;18.07;;;;;;;0.33;84.74;99380.41;1758179;81;25496;-57
2021/03/13 00:33:20;;;;;;;35.78;19.27;;;;;;;0.31;84.79;99379.88;1759140;80;25254;-56
2021/03/13 00:35:50;;;;;;;36.33;18.80;;;;;;;0.29;84.78;99377.20;1757917;81;25723;-56
2021/03/13 00:38:18;;;;;;;35.85;19.57;;;;;;;0.28;84.76;99372.97;1758275;80;25548;-56
2021/03/13 00:40:47;;;;;;;36.05;20.05;;;;;;;0.25;84.89;99374.27;1758649;81;25551;-53
2021/03/13 00:43:15;;;;;;;29.12;13.38;;;;;;;0.24;84.93;99378.02;1759175;81;25533;-57
2021/03/13 00:45:44;;;;;;;23.00;12.47;;;;;;;0.22;84.77;99377.99;1758616;80;25665;-55
2021/03/13 00:48:12;;;;;;;37.30;18.65;;;;;;;0.19;84.92;99371.35;1758996;81;25952;-56
2021/03/13 00:50:41;;;;;;;35.08;18.17;;;;;;;0.16;84.80;99367.34;1760814;81;25649;-56
2021/03/13 00:53:08;;;;;;;34.73;19.05;;;;;;;0.14;84.89;99360.16;1758149;81;25498;-56
2021/03/13 00:55:35;;;;;;;30.32;17.05;;;;;;;0.13;84.80;99359.09;1758352;80;25508;-52
2021/03/13 00:58:02;;;;;;;37.50;18.90;;;;;;;0.11;84.97;99354.58;1759128;81;25551;-52
2021/03/13 01:00:29;;;;;;;39.42;19.32;;;;;;;0.12;84.76;99355.64;1758843;81;26603;-54
2021/03/13 01:02:56;;;;;;;35.92;18.95;;;;;;;0.11;84.89;99352.70;1758463;81;25646;-56
2021/03/13 01:05:22;;;;;;;38.48;19.98;;;;;;;0.10;84.84;99351.13;1758603;81;25552;-56
2021/03/13 01:07:49;;;;;;;37.58;19.62;;;;;;;0.10;84.89;99345.80;1758462;81;25438;-53
2021/03/13 01:10:30;;;;;;;35.95;19.25;;;;;;;0.07;84.89;99343.66;1758638;81;25257;-57
2021/03/13 01:12:57;;;;;;;36.60;19.87;;;;;;;0.07;84.93;99337.53;1761741;80;26569;-55
2021/03/13 01:15:24;;;;;;;34.55;18.87;;;;;;;0.04;84.58;99335.42;1761173;81;25321;-56
2021/03/13 01:17:52;;;;;;;38.90;18.62;;;;;;;0.02;84.82;99333.02;1760857;81;25593;-55
2021/03/13 01:20:21;;;;;;;34.33;17.85;;;;;;;0.02;84.91;99338.84;1759034;81;25326;-54
2021/03/13 01:22:48;;;;;;;38.88;19.23;;;;;;;0.02;85.09;99344.16;1761164;81;25575;-56
2021/03/13 01:25:17;;;;;;;38.40;18.70;;;;;;;0.03;85.49;99339.13;1760624;81;25744;-54
2021/03/13 01:27:45;;;;;;;25.65;13.13;;;;;;;0.03;85.40;99335.14;1745140;80;25804;-55
2021/03/13 01:30:17;;;;;;;32.58;16.57;;;;;;;0.02;85.50;99333.02;1767554;81;25466;-56
2021/03/13 01:32:44;;;;;;;34.65;18.15;;;;;;;0.03;85.70;99323.17;1759381;81;25305;-54
2021/03/13 01:35:12;;;;;;;33.35;16.30;;;;;;;0.05;85.54;99327.69;1758984;81;25528;-56
2021/03/13 01:37:38;;;;;;;30.68;17.62;;;;;;;0.05;85.58;99323.19;1758374;81;25817;-54
2021/03/13 01:40:10;;;;;;;33.33;16.97;;;;;;;0.06;85.53;99323.98;1755869;81;25420;-57
2021/03/13 01:42:38;;;;;;;35.95;17.00;;;;;;;0.09;85.37;99318.14;1755447;81;25387;-53
2021/03/13 01:45:08;;;;;;;35.15;17.73;;;;;;;0.08;85.42;99313.88;1755222;80;25257;-54
2021/03/13 01:47:35;;;;;;;32.42;16.90;;;;;;;0.08;85.25;99319.98;1755496;81;25351;-52
2021/03/13 01:50:06;;;;;;;33.70;17.98;;;;;;;0.08;85.51;99314.66;1755476;81;26895;-53
2021/03/13 01:52:33;;;;;;;29.63;17.25;;;;;;;0.09;85.38;99308.84;1755173;81;25507;-56
2021/03/13 01:55:10;;;;;;;32.85;16.42;;;;;;;0.09;85.50;99310.95;1755457;80;25426;-56
2021/03/13 01:57:38;;;;;;;34.05;18.40;;;;;;;0.11;85.43;99314.69;1755090;81;25484;-53
2021/03/13 02:00:15;;;;;;;32.83;17.27;;;;;;;0.09;85.25;99306.18;1755120;81;25584;-57
2021/03/13 02:02:43;;;;;;;37.23;18.37;;;;;;;0.08;85.19;99298.70;1755041;81;25914;-56
2021/03/13 02:05:18;;;;;;;33.50;18.52;;;;;;;0.05;85.22;99296.61;1755449;81;25518;-55
2021/03/13 02:08:05;;;;;;;37.98;18.45;;;;;;;0.04;85.14;99287.56;1755168;80;25467;-53
2021/03/13 02:10:39;;;;;;;36.70;18.50;;;;;;;0.01;85.02;99288.08;1721415;81;25353;-55
2021/03/13 02:13:20;;;;;;;39.33;19.05;;;;;;;0.00;85.11;99283.30;1744552;81;25692;-54
2021/03/13 02:16:01;;;;;;;38.90;17.55;;;;;;;-0.02;85.15;99284.89;1755089;81;26541;-54
2021/03/13 02:19:10;;;;;;;36.00;18.95;;;;;;;-0.03;85.22;99284.61;1755499;81;25285;-52
2021/03/13 02:21:50;;;;;;;35.28;18.10;;;;;;;-0.03;85.11;99286.48;1762049;81;25635;-52
2021/03/13 02:24:41;;;;;;;41.05;17.40;;;;;;;-0.06;85.02;99285.67;1750701;81;25465;-55
2021/03/13 02:27:30;;;;;;;36.63;18.92;;;;;;;-0.08;84.89;99285.93;1755426;80;25276;-53
2021/03/13 02:30:05;;;;;;;;;;;;;;;-0.12;84.86;99283.55;1757787;81;25760;-56
2021/03/13 02:35:15;;;;;;;37.55;18.50;;;;;;;-0.19;84.85;99285.63;1791620;77;27096;-54
2021/03/13 02:37:48;;;;;;;34.85;17.90;;;;;;;-0.23;85.05;99288.02;1834616;78;25481;-54
2021/03/13 07:02:11;;;;;;;30.77;14.47;;;;;;;1.94;79.65;99171.11;1812765;77;27112;-55
2021/03/13 07:04:45;;;;;;;34.90;13.98;;;;;;;2.02;79.22;99175.30;1815929;79;25411;-55
2021/03/13 07:07:20;;;;;;;29.50;14.53;;;;;;;2.10;78.94;99179.81;1815854;79;25450;-53
2021/03/13 07:09:54;;;;;;;36.17;14.70;;;;;;;2.16;78.91;99191.49;1809493;78;25245;-53
2021/03/13 07:12:40;;;;;;;30.85;14.50;;;;;;;2.24;79.09;99180.73;1816022;79;26217;-56
2021/03/13 07:15:26;;;;;;;29.25;14.30;;;;;;;2.32;78.44;99194.81;1815894;79;25485;-52
2021/03/13 07:18:00;;;;;;;30.20;13.05;;;;;;;2.38;78.54;99200.37;1815982;79;25459;-56
2021/03/13 07:20:31;;;;;;;27.67;14.05;;;;;;;2.43;78.62;99198.17;1815943;79;25274;-56
2021/03/13 07:23:02;;;;;;;29.40;13.35;;;;;;;2.46;78.96;99200.83;1816126;79;25441;-53
2021/03/13 07:25:30;;;;;;;28.05;13.90;;;;;;;2.47;79.25;99201.07;1815955;79;25850;-52
2021/03/13 07:28:00;;;;;;;29.00;13.55;;;;;;;2.46;79.45;99205.63;1815828;79;25292;-55
2021/03/13 07:30:30;;;;;;;24.92;12.68;;;;;;;2.42;79.91;99213.41;1815897;79;25399;-56
2021/03/13 07:33:10;;;;;;;28.20;12.58;;;;;;;2.41;80.14;99206.45;1816079;79;25257;-55
2021/03/13 07:35:42;;;;;;;26.12;13.08;;;;;;;2.39;80.55;99198.49;1812482;78;25275;-56
2021/03/13 07:38:15;;;;;;;25.88;12.93;;;;;;;2.39;80.67;99209.17;1814873;78;25716;-56
2021/03/13 07:40:46;;;;;;;29.12;13.95;;;;;;;2.39;80.88;99207.83;1815905;79;25486;-56
2021/03/13 07:43:16;;;;;;;26.05;14.43;;;;;;;2.40;81.25;99208.07;1816180;78;25431;-54
2021/03/13 07:45:48;;;;;;;25.80;13.72;;;;;;;2.38;81.23;99208.38;1790041;79;25356;-54
2021/03/13 07:48:16;;;;;;;23.15;11.68;;;;;;;2.35;81.57;99216.94;1816272;79;25288;-55
2021/03/13 07:50:48;;;;;;;29.80;12.68;;;;;;;2.32;82.11;99211.38;1816150;79;26602;-56
2021/03/13 07:53:17;;;;;;;27.30;13.75;;;;;;;2.25;82.17;99217.03;1816085;79;25412;-57
2021/03/13 07:55:51;;;;;;;28.47;12.55;;;;;;;2.18;82.27;99217.34;1816290;79;25329;-56
2021/03/13 07:58:22;;;;;;;24.35;11.43;;;;;;;2.12;82.38;99218.45;1816087;79;25079;-57
2021/03/13 08:00:49;;;;;;;17.55;10.72;;;;;;;2.07;82.79;99213.16;1814296;77;25280;-57
2021/03/13 08:03:34;;;;;;;20.43;11.53;;;;;;;1.98;82.92;99204.95;1801127;79;26617;-57
2021/03/13 08:06:05;;;;;;;23.73;12.18;;;;;;;1.92;83.21;99193.27;1866340;76;25453;-56
2021/03/13 08:08:52;;;;;;;21.42;12.13;;;;;;;1.85;83.07;99175.70;1873481;75;25565;-56
2021/03/13 08:11:21;;;;;;;22.52;11.43;;;;;;;1.85;83.33;99190.92;1877732;75;25718;-57
2021/03/13 08:13:54;;;;;;;21.35;11.65;;;;;;;1.84;83.81;99172.01;1879053;76;25591;-53
2021/03/13 08:16:35;;;;;;;23.47;12.03;;;;;;;1.85;84.05;99174.91;1805819;79;26833;-55
2021/03/13 08:19:05;;;;;;;19.20;10.80;;;;;;;1.86;84.17;99178.64;1880244;76;25591;-53
2021/03/13 08:21:39;;;;;;;22.22;11.33;;;;;;;1.90;84.41;99184.21;1806340;79;25219;-53
2021/03/13 08:24:06;;;;;;;23.27;11.53;;;;;;;1.92;85.36;99195.94;1849612;75;25558;-55
2021/03/13 08:26:54;;;;;;;24.77;11.25;;;;;;;1.93;85.19;99191.66;1845896;77;25610;-56
2021/03/13 08:29:25;;;;;;;19.67;10.98;;;;;;;1.93;85.42;99194.33;1845865;77;25759;-54
2021/03/13 08:31:53;;;;;;;20.27;11.20;;;;;;;1.93;85.19;99201.00;1839427;77;26081;-56
2021/03/13 08:34:25;;;;;;;20.35;12.13;;;;;;;1.93;85.63;99200.21;1845825;77;25587;-56
2021/03/13 08:36:53;;;;;;;21.00;12.28;;;;;;;1.93;85.58;99202.88;1845838;77;25536;-57
2021/03/13 08:39:23;;;;;;;22.82;11.25;;;;;;;1.92;86.20;99199.39;1846550;77;25505;-57
2021/03/13 08:41:57;;;;;;;23.47;11.40;;;;;;;1.92;86.17;99191.94;1846745;77;25804;-56
2021/03/13 08:44:37;;;;;;;22.27;11.83;;;;;;;1.92;86.50;99190.60;1846717;77;25473;-54
2021/03/13 08:47:12;;;;;;;25.25;12.47;;;;;;;1.95;86.66;99195.39;1846891;77;25478;-55
2021/03/13 08:49:47;;;;;;;17.50;11.60;;;;;;;1.96;86.72;99189.78;1849752;76;25418;-57
2021/03/13 08:52:21;;;;;;;22.62;12.23;;;;;;;2.03;86.61;99189.46;1881033;76;25666;-53
2021/03/13 08:54:51;;;;;;;25.08;13.05;;;;;;;2.12;86.64;99181.10;1866219;76;26675;-54
2021/03/13 08:57:28;;;;;;;23.62;12.58;;;;;;;2.22;86.83;99178.34;1881014;76;25548;-56
2021/03/13 08:59:59;;;;;;;22.90;12.45;;;;;;;2.30;87.44;99181.48;1880900;76;25390;-55
2021/03/13 09:02:36;;;;;;;20.02;12.63;;;;;;;2.36;87.29;99169.14;1874949;76;25543;-56
2021/03/13 09:05:14;;;;;;;20.70;13.00;;;;;;;2.49;87.42;99177.04;1869211;76;25492;-55
2021/03/13 09:07:48;;;;;;;22.25;13.13;;;;;;;2.70;87.61;99162.14;1836222;78;25786;-53
2021/03/13 09:10:18;;;;;;;21.07;13.28;;;;;;;3.08;88.08;99155.54;1804743;78;25566;-55
2021/03/13 09:12:45;;;;;;;18.00;11.28;;;;;;;3.67;87.67;99151.52;1845563;77;25518;-54
2021/03/13 09:15:15;;;;;;;19.37;11.83;;;;;;;4.21;86.01;99145.86;1845507;77;25498;-58
2021/03/13 09:17:41;;;;;;;;;;;;;;;4.80;86.18;99142.88;1848542;77;25111;-58
2021/03/13 09:20:13;;;;;;;16.73;9.98;;;;;;;5.36;85.37;99144.95;1833343;78;25916;-56
2021/03/13 09:22:43;;;;;;;16.75;11.03;;;;;;;5.83;83.67;99143.89;1833572;78;25136;-55
2021/03/13 09:25:20;;;;;;;16.30;10.78;;;;;;;6.23;82.71;99150.70;1845750;77;25418;-55
2021/03/13 09:27:50;;;;;;;16.12;9.75;;;;;;;6.72;82.10;99145.66;1842124;77;25547;-56
2021/03/13 09:30:22;;;;;;;16.60;10.18;;;;;;;7.14;81.73;99167.36;1869783;76;25655;-55
2021/03/13 09:32:51;;;;;;;16.12;9.20;;;;;;;7.41;80.03;99150.16;1871981;76;26625;-54
2021/03/13 09:35:22;;;;;;;;;;;;;;;7.76;78.24;99156.88;1858020;76;25628;-58
2021/03/13 09:37:49;;;;;;;14.90;9.53;;;;;;;7.68;76.48;99161.16;1842171;76;25566;-55
2021/03/13 09:40:20;;;;;;;16.87;9.80;;;;;;;7.43;76.80;99142.55;1843304;77;25638;-55
2021/03/13 09:42:49;;;;;;;15.50;9.65;;;;;;;7.18;75.53;99162.36;1843145;77;25572;-55
2021/03/13 09:45:19;;;;;;;;;;;;;;;6.82;75.34;99160.69;1841148;76;25738;-56
2021/03/13 09:47:59;;;;;;;15.63;9.43;;;;;;;6.52;76.13;99155.05;1837498;78;25602;-55
2021/03/13 09:50:35;;;;;;;15.72;9.35;;;;;;;6.35;77.34;99156.30;1836042;78;25464;-56
2021/03/13 09:53:06;;;;;;;21.68;10.15;;;;;;;6.22;77.49;99155.84;1835779;78;26108;-54
2021/03/13 09:55:33;;;;;;;16.45;9.60;;;;;;;6.02;77.90;99147.19;1810670;79;25580;-55
2021/03/13 09:58:02;;;;;;;15.25;9.68;;;;;;;5.90;78.22;99147.71;1810707;78;25925;-57
2021/03/13 10:00:33;;;;;;;18.90;10.48;;;;;;;5.77;78.69;99149.38;1810797;79;30674;-55
2021/03/13 10:03:02;;;;;;;16.70;9.95;;;;;;;5.64;78.70;99155.58;1810892;79;25338;-57
2021/03/13 10:05:31;;;;;;;17.62;10.23;;;;;;;5.53;79.19;99150.98;1811200;79;25875;-57
2021/03/13 10:08:07;;;;;;;15.72;9.63;;;;;;;5.43;79.39;99147.19;1834124;77;25615;-56
2021/03/13 10:10:35;;;;;;;16.27;10.05;;;;;;;5.35;79.64;99147.92;1833963;77;26700;-55
2021/03/13 10:13:06;;;;;;;14.80;9.90;;;;;;;5.28;80.02;99146.99;1833780;77;26349;-58
2021/03/13 10:15:36;;;;;;;19.00;9.70;;;;;;;5.26;80.38;99157.76;1834302;78;25523;-58
2021/03/13 10:18:14;;;;;;;15.72;9.73;;;;;;;5.21;80.49;99154.63;1832928;78;25663;-57
2021/03/13 10:20:49;;;;;;;13.83;8.75;;;;;;;5.19;80.79;99156.83;1834157;78;25609;-58
2021/03/13 10:23:19;;;;;;;15.55;9.70;;;;;;;5.20;81.03;99153.06;1834218;77;25746;-57
2021/03/13 10:26:03;;;;;;;14.65;8.73;;;;;;;5.21;81.18;99145.25;1843488;77;25619;-57
2021/03/13 10:28:52;;;;;;;14.60;8.43;;;;;;;5.26;81.24;99143.02;1843399;77;25604;-58
2021/03/13 10:31:23;;;;;;;15.53;9.43;;;;;;;5.36;81.58;99146.81;1843344;77;32496;-57
2021/03/13 10:33:52;;;;;;;14.50;9.83;;;;;;;5.50;81.86;99145.43;1818326;77;25650;-57
2021/03/13 10:36:41;;;;;;;14.05;8.88;;;;;;;5.62;81.78;99139.00;1802911;79;26175;-55
2021/03/13 10:39:09;;;;;;;14.45;8.85;;;;;;;5.73;81.91;99132.84;1801683;79;25269;-55
2021/03/13 10:41:36;;;;;;;12.55;8.25;;;;;;;5.84;81.58;99132.84;1801690;79;25656;-56
2021/03/13 10:44:06;;;;;;;11.75;7.95;;;;;;;5.91;81.16;99128.39;1802294;79;25628;-57
2021/03/13 10:46:41;;;;;;;12.47;8.55;;;;;;;5.97;80.98;99129.87;1782487;79;25541;-58
2021/03/13 10:49:07;;;;;;;11.88;7.42;;;;;;;6.05;80.67;99132.37;1811464;79;25754;-58
2021/03/13 10:51:42;;;;;;;12.63;7.95;;;;;;;6.14;80.57;99129.18;1811787;79;25729;-58
2021/03/13 10:54:30;;;;;;;11.03;7.40;;;;;;;6.21;79.47;99129.53;1811881;78;25507;-65
2021/03/13 10:57:08;;;;;;;9.20;6.47;;;;;;;6.29;79.98;99121.28;1837491;78;25414;-57
2021/03/13 10:59:35;;;;;;;11.28;7.10;;;;;;;6.45;79.78;99121.66;1837783;78;25394;-57
2021/03/13 11:02:02;;;;;;;10.70;6.45;;;;;;;6.62;79.66;99119.04;1811692;77;25933;-55
2021/03/13 11:04:29;;;;;;;8.50;6.85;;;;;;;6.84;79.13;99117.37;1836115;78;25583;-55
2021/03/13 11:06:57;;;;;;;9.13;6.45;;;;;;;6.96;79.04;99123.49;1836694;78;25536;-56
2021/03/13 11:09:24;;;;;;;10.65;6.70;;;;;;;7.28;79.39;99127.66;1836754;78;25542;-57
2021/03/13 11:11:51;;;;;;;9.10;6.87;;;;;;;7.54;78.02;99111.52;1836601;78;25204;-56
2021/03/13 11:14:18;;;;;;;12.43;7.12;;;;;;;7.60;76.96;99112.95;1836928;78;25773;-56
2021/03/13 11:16:48;;;;;;;10.60;6.53;;;;;;;7.58;75.59;99118.42;1836874;78;25668;-57
2021/03/13 11:19:14;;;;;;;;;;;;;;;7.67;76.37;99113.81;1814758;79;25264;-55
2021/03/13 11:21:42;;;;;;;11.15;6.37;;;;;;;7.99;76.51;99114.41;1837595;78;25996;-57
2021/03/13 11:24:11;;;;;;;9.73;6.90;;;;;;;8.51;76.22;99100.81;1843641;76;25810;-57
2021/03/13 11:26:38;;;;;;;10.48;6.97;;;;;;;8.97;75.48;99097.78;1847240;76;46123;-59
2021/03/13 11:29:05;;;;;;;12.28;6.53;;;;;;;9.28;74.98;99104.72;1869899;76;25521;-58
2021/03/13 11:31:33;;;;;;;9.48;5.97;;;;;;;10.07;70.46;99101.30;1879870;76;25544;-58
2021/03/13 11:34:01;;;;;;;8.90;6.17;;;;;;;10.47;68.24;99092.59;1836752;77;25589;-57
2021/03/13 11:36:28;;;;;;;10.78;6.08;;;;;;;10.36;66.70;99094.95;1832794;78;25432;-55
2021/03/13 11:38:56;;;;;;;8.15;5.33;;;;;;;10.55;69.36;99087.64;1832817;78;26603;-56
2021/03/13 11:41:25;;;;;;;8.10;5.05;;;;;;;11.19;68.61;99092.10;1832373;78;25484;-54
2021/03/13 11:43:52;;;;;;;9.93;5.00;;;;;;;11.13;66.76;99091.53;1832572;78;25643;-54
2021/03/13 11:46:20;;;;;;;8.95;5.45;;;;;;;10.82;64.23;99090.80;1810524;79;25625;-56
2021/03/13 11:48:48;;;;;;;10.20;5.22;;;;;;;10.49;62.53;99089.02;1843387;77;25537;-56
2021/03/13 11:51:15;;;;;;;9.95;5.30;;;;;;;10.20;63.36;99077.78;1843679;77;25974;-56
2021/03/13 11:53:42;;;;;;;10.28;5.70;;;;;;;10.20;63.30;99071.84;1843364;77;25401;-56
2021/03/13 11:56:09;;;;;;;9.48;5.83;;;;;;;10.31;63.76;99066.77;1843348;77;25646;-56
2021/03/13 11:58:37;;;;;;;9.43;5.50;;;;;;;10.23;63.31;99064.95;1810318;79;25600;-56
2021/03/13 12:01:03;;;;;;;12.20;5.47;;;;;;;10.15;61.31;99058.55;1810349;79;25590;-55
2021/03/13 12:03:30;;;;;;;5.65;4.58;;;;;;;10.51;63.22;99058.94;1833927;77;28116;-56
2021/03/13 12:05:56;;;;;;;7.85;4.55;;;;;;;11.03;62.98;99051.41;1797258;79;25621;-54
2021/03/13 12:08:23;;;;;;;10.05;4.97;;;;;;;11.43;61.55;99051.20;1797485;79;25324;-56
2021/03/13 12:10:50;;;;;;;7.05;3.95;;;;;;;11.74;58.43;99051.84;1874249;76;26336;-57
2021/03/13 12:13:16;;;;;;;6.67;4.35;;;;;;;11.84;54.15;99048.63;1876318;76;25523;-62
2021/03/13 12:15:47;;;;;;;6.10;3.83;;;;;;;11.92;56.16;99040.16;1880525;76;28150;-57
2021/03/13 12:18:16;;;;;;;6.03;3.85;;;;;;;11.76;57.28;99038.18;1880056;76;25776;-58
2021/03/13 12:20:44;;;;;;;6.20;4.10;;;;;;;11.50;58.86;99039.98;1880389;76;25866;-58
2021/03/13 12:23:10;;;;;;;5.35;3.58;;;;;;;11.23;58.25;99045.61;1880453;76;25480;-57
2021/03/13 12:25:38;;;;;;;9.35;4.25;;;;;;;11.01;58.37;99022.56;1879898;76;25512;-59
2021/03/13 12:28:05;;;;;;;6.25;4.00;;;;;;;10.82;59.58;99021.25;1880483;76;25744;-59
2021/03/13 12:30:31;;;;;;;5.83;3.33;;;;;;;10.63;58.19;99013.73;1880475;76;25493;-60
2021/03/13 12:32:58;;;;;;;4.65;3.60;;;;;;;10.45;58.89;99014.56;1880144;76;25568;-58
2021/03/13 12:35:25;;;;;;;6.92;3.12;;;;;;;10.34;58.19;99031.56;1878609;76;25483;-58
2021/03/13 12:37:51;;;;;;;6.55;2.85;;;;;;;10.18;56.77;99017.89;1880268;76;25508;-59
2021/03/13 12:40:18;;;;;;;7.03;2.92;;;;;;;9.98;56.62;99006.08;1880230;76;25956;-58
2021/03/13 12:42:44;;;;;;;6.37;3.60;;;;;;;9.80;57.55;99005.47;1837111;78;25569;-58
2021/03/13 12:45:12;;;;;;;5.28;2.83;;;;;;;9.70;57.50;98995.87;1805266;77;25545;-59
2021/03/13 12:47:39;;;;;;;4.60;2.83;;;;;;;9.62;58.01;98996.22;1796474;79;25655;-59
2021/03/13 12:50:08;;;;;;;5.35;2.90;;;;;;;9.63;59.49;98991.59;1837687;77;25533;-60
2021/03/13 12:52:34;;;;;;;4.80;2.67;;;;;;;9.62;59.84;98990.01;1832614;78;25740;-58
2021/03/13 12:55:01;;;;;;;8.13;2.95;;;;;;;9.58;60.32;98987.76;1799038;79;25700;-59
2021/03/13 12:57:28;;;;;;;6.70;3.55;;;;;;;9.66;60.05;98994.41;1804858;77;25599;-59
2021/03/13 12:59:54;;;;;;;5.60;2.65;;;;;;;9.80;58.35;98987.34;1832623;76;26220;-59
2021/03/13 13:02:20;;;;;;;4.85;3.05;;;;;;;9.89;59.59;98979.95;1871173;76;25501;-58
2021/03/13 13:04:47;;;;;;;7.53;3.17;;;;;;;9.89;58.13;98978.59;1836882;77;25765;-58
2021/03/13 13:07:13;;;;;;;5.22;3.12;;;;;;;9.79;59.16;98989.03;1884757;76;26141;-60
2021/03/13 13:09:41;;;;;;;5.92;3.22;;;;;;;9.73;59.22;98973.61;1883831;76;26281;-57
2021/03/13 13:12:09;;;;;;;6.25;2.50;;;;;;;9.71;58.97;98979.34;1883938;76;25494;-58
2021/03/13 13:14:36;;;;;;;6.28;3.05;;;;;;;9.65;57.82;98979.89;1884255;76;25570;-58
2021/03/13 13:17:04;;;;;;;6.20;2.58;;;;;;;9.56;57.42;98973.24;1883824;76;25741;-56
2021/03/13 13:19:30;;;;;;;5.83;2.60;;;;;;;9.48;57.39;98967.37;1883946;76;25544;-58
2021/03/13 13:21:56;;;;;;;6.35;2.37;;;;;;;9.43;57.65;98968.93;1884459;76;25574;-57
2021/03/13 13:24:23;;;;;;;3.80;2.42;;;;;;;9.37;57.84;98964.88;1884962;76;25532;-58
2021/03/13 13:26:49;;;;;;;3.80;2.35;;;;;;;9.30;57.75;98972.17;1885359;76;25431;-58
2021/03/13 13:29:16;;;;;;;4.78;2.25;;;;;;;9.22;58.21;98958.98;1885150;76;25737;-57
2021/03/13 13:31:43;;;;;;;4.67;2.15;;;;;;;9.19;58.79;98954.80;1885103;76;25597;-57
2021/03/13 13:34:10;;;;;;;5.67;2.30;;;;;;;9.19;58.80;98951.53;1885293;76;25243;-57
2021/03/13 13:36:36;;;;;;;7.33;2.30;;;;;;;9.18;58.96;98943.77;1885640;76;25530;-58
2021/03/13 13:39:05;;;;;;;5.65;2.22;;;;;;;9.18;59.09;98941.08;1885251;76;25259;-57
2021/03/13 13:41:32;;;;;;;5.55;2.30;;;;;;;9.18;59.06;98937.03;1885473;76;25843;-57
2021/03/13 13:43:59;;;;;;;4.12;2.25;;;;;;;9.19;59.32;98935.35;1885182;76;25605;-57
2021/03/13 13:46:25;;;;;;;4.58;2.40;;;;;;;9.23;59.02;98938.17;1884867;76;25336;-57
2021/03/13 13:48:51;;;;;;;5.20;2.08;;;;;;;9.23;59.77;98929.53;1885476;76;25131;-58
2021/03/13 13:51:18;;;;;;;4.05;2.25;;;;;;;9.25;59.08;98916.50;1885338;76;25466;-58
2021/03/13 13:53:44;;;;;;;5.30;2.67;;;;;;;9.27;58.03;98925.61;1885131;75;26254;-58
2021/03/13 13:56:10;;;;;;;5.40;3.20;;;;;;;9.25;59.12;98911.67;1885242;76;25584;-58
2021/03/13 13:58:39;;;;;;;6.97;3.30;;;;;;;9.22;58.69;98911.77;1885340;76;25463;-58
2021/03/13 14:01:06;;;;;;;5.62;3.08;;;;;;;9.16;57.59;98912.54;1885124;76;25500;-58
2021/03/13 14:03:32;;;;;;;4.35;3.02;;;;;;;9.13;57.73;98911.07;1881353;76;25494;-58
2021/03/13 14:05:58;;;;;;;3.55;3.00;;;;;;;9.10;58.15;98915.20;1875231;75;26622;-57
2021/03/13 14:08:24;;;;;;;5.78;3.10;;;;;;;9.06;57.29;98903.52;1851285;76;25607;-57
2021/03/13 14:10:51;;;;;;;3.70;3.22;;;;;;;9.03;57.33;98899.35;1855491;76;25632;-55
2021/03/13 14:13:19;;;;;;;3.77;2.95;;;;;;;9.03;56.84;98896.09;1810676;79;25495;-57
2021/03/13 14:15:45;;;;;;;4.67;3.60;;;;;;;9.04;58.00;98888.77;1810669;78;25494;-58
2021/03/13 14:18:12;;;;;;;7.33;3.05;;;;;;;9.05;57.86;98890.36;1811421;79;25776;-56
2021/03/13 14:20:38;;;;;;;5.10;3.40;;;;;;;9.07;56.67;98899.69;1811570;78;25572;-55
2021/03/13 14:23:05;;;;;;;7.20;3.30;;;;;;;9.09;56.25;98884.52;1811171;79;25574;-56
2021/03/13 14:25:31;;;;;;;4.50;2.50;;;;;;;9.11;55.91;98880.95;1811280;79;25286;-57
2021/03/13 14:27:58;;;;;;;5.10;3.00;;;;;;;9.12;54.25;98883.86;1811718;79;26029;-57
2021/03/13 14:30:25;;;;;;;5.50;3.12;;;;;;;9.15;56.30;98877.80;1811485;79;25861;-56
2021/03/13 14:32:52;;;;;;;4.67;3.02;;;;;;;9.15;56.07;98878.58;1811586;79;25496;-55
2021/03/13 14:35:22;;;;;;;4.72;2.67;;;;;;;9.16;55.42;98880.17;1811482;79;25564;-57
2021/03/13 14:37:48;;;;;;;5.10;2.47;;;;;;;9.16;56.89;98870.73;1811423;79;25546;-56
2021/03/13 14:40:17;;;;;;;4.37;2.87;;;;;;;9.17;56.60;98864.77;1811734;79;25297;-53
2021/03/13 14:42:45;;;;;;;4.53;2.80;;;;;;;9.18;55.89;98869.59;1847457;76;25683;-54
2021/03/13 14:45:14;;;;;;;5.33;2.90;;;;;;;9.17;56.62;98872.85;1871026;76;25503;-58
2021/03/13 14:47:42;;;;;;;4.75;3.22;;;;;;;9.17;55.93;98876.90;1871435;76;25667;-57
2021/03/13 14:50:10;;;;;;;4.65;2.90;;;;;;;9.16;54.95;98884.22;1871218;76;25586;-53
2021/03/13 14:52:38;;;;;;;5.47;2.80;;;;;;;9.14;55.80;98866.23;1871011;76;25558;-56
2021/03/13 14:55:07;;;;;;;5.42;3.35;;;;;;;9.12;56.39;98859.58;1862747;76;26090;-57
2021/03/13 14:57:36;;;;;;;5.08;2.98;;;;;;;9.09;55.60;98862.94;1835533;78;25487;-56
2021/03/13 15:00:20;;;;;;;6.80;3.20;;;;;;;9.07;55.95;98859.80;1835442;78;25622;-58
2021/03/13 15:02:49;;;;;;;4.87;2.83;;;;;;;9.05;56.24;98858.77;1809743;79;25647;-57
2021/03/13 15:05:18;;;;;;;6.25;2.30;;;;;;;9.03;55.96;98858.89;1835518;78;27824;-59
2021/03/13 15:07:46;;;;;;;6.10;2.58;;;;;;;9.01;55.20;98855.18;1809871;79;26700;-56
2021/03/13 15:10:16;;;;;;;4.53;2.60;;;;;;;8.98;55.02;98858.53;1835592;78;25908;-58
2021/03/13 15:12:44;;;;;;;3.42;2.52;;;;;;;8.97;55.67;98855.60;1822096;77;25598;-57
2021/03/13 15:15:13;;;;;;;7.95;2.58;;;;;;;8.95;55.63;98865.37;1844040;77;25622;-57
2021/03/13 15:17:40;;;;;;;;;;;;;;;8.93;56.17;98856.05;1846416;77;25520;-56
2021/03/13 15:20:12;;;;;;;5.85;2.52;;;;;;;8.91;56.49;98859.08;1843850;77;25690;-58
2021/03/13 15:22:39;;;;;;;6.85;2.67;;;;;;;8.89;56.65;98848.41;1843407;77;25516;-60
2021/03/13 15:25:09;;;;;;;4.67;2.55;;;;;;;8.88;57.58;98841.43;1843113;77;25631;-57
2021/03/13 15:27:43;;;;;;;4.45;2.80;;;;;;;8.83;57.12;98833.55;1816656;77;25621;-53
2021/03/13 15:30:11;;;;;;;5.08;2.42;;;;;;;8.81;57.70;98837.14;1843631;77;25625;-53
2021/03/13 15:32:37;;;;;;;5.22;2.40;;;;;;;8.77;57.41;98837.02;1818713;76;25881;-55
2021/03/13 15:35:04;;;;;;;4.22;2.65;;;;;;;8.71;57.79;98841.81;1810883;79;25542;-55
2021/03/13 15:37:32;;;;;;;3.15;2.60;;;;;;;8.70;58.30;98834.05;1835530;76;25535;-54
2021/03/13 15:40:00;;;;;;;3.90;2.72;;;;;;;8.68;57.25;98825.52;1852279;76;25567;-54
2021/03/13 15:42:28;;;;;;;7.28;3.62;;;;;;;8.70;57.77;98814.65;1811144;79;25590;-56
2021/03/13 15:44:55;;;;;;;5.12;3.20;;;;;;;8.71;57.73;98816.77;1844033;76;28118;-54
2021/03/13 15:47:21;;;;;;;6.62;3.67;;;;;;;8.71;58.01;98809.47;1871095;76;25573;-57
2021/03/13 15:49:52;;;;;;;7.35;3.90;;;;;;;8.73;57.27;98815.31;1871401;76;25543;-57
2021/03/13 15:52:21;;;;;;;8.95;3.75;;;;;;;8.78;57.83;98805.69;1851718;75;25562;-55
2021/03/13 15:54:49;;;;;;;;;;;;;;;8.79;57.49;98808.59;1830331;77;25550;-56
2021/03/13 15:57:16;;;;;;;7.03;3.92;;;;;;;8.81;58.13;98800.18;1842258;77;25752;-57
2021/03/13 15:59:46;;;;;;;8.18;4.90;;;;;;;8.79;57.32;98779.51;1841908;77;26234;-57
2021/03/13 16:02:12;;;;;;;8.73;3.80;;;;;;;8.82;57.15;98795.03;1841690;77;25552;-55
2021/03/13 16:04:39;;;;;;;11.45;6.25;;;;;;;8.84;57.79;98798.17;1869772;75;25850;-57
2021/03/13 16:07:05;;;;;;;5.75;3.50;;;;;;;8.82;58.00;98801.77;1893453;75;25660;-56
2021/03/13 16:09:34;;;;;;;7.95;4.45;;;;;;;8.82;57.51;98786.94;1840148;77;25681;-58
2021/03/13 16:12:00;;;;;;;8.33;4.55;;;;;;;8.83;57.46;98793.11;1840734;77;25528;-57